Terminal Aerodrome Forecast
Issued by NWS

Home | Current Version | Previous Version | Text Only | Print | Product List | Glossary On
Versions: 1 2 3 4 5 6 7 8 9 10 11 12 13 14 15 16 17 18 19 20 21 22 23 24
000
FTUS44 KOUN 290522
TAFCSM
TAF
KCSM 290522Z 2906/3006 13009KT P6SM SCT250
     FM291000 02008KT P6SM SCT250
     FM292200 03010KT P6SM BKN035
     FM300400 02012KT 5SM BR OVC025=

USA.gov is the U.S. government's official web portal to all federal, state and local government web resources and services.